Time;durP1;ratioP1;P1;durP2;ratioP2;P2;SDS_P1;SDS_P2;PMS_P1;PMS_P2;Temp;Humidity;BMP_temperature;BMP_pressure;BME280_temperature;BME280_humidity;BME280_pressure;Samples;Min_cycle;Max_cycle;Signal;HPM_P1;HPM_P2
2024/01/19 00:01:13;;;;;;;9.48;4.40;;;2.40;99.90;;;;;;10073529;28;20044;-70
2024/01/19 00:06:04;;;;;;;10.27;4.82;;;2.40;99.90;;;;;;10076324;28;20017;-72
2024/01/19 00:10:55;;;;;;;13.90;5.65;;;2.30;99.90;;;;;;10077027;28;20030;-72
2024/01/19 00:15:45;;;;;;;11.25;5.80;;;2.30;99.90;;;;;;10074005;28;20032;-71
2024/01/19 00:20:36;;;;;;;9.30;4.55;;;2.30;99.90;;;;;;10073319;28;20119;-71
2024/01/19 00:25:27;;;;;;;11.13;4.57;;;2.20;99.90;;;;;;10074958;28;20049;-71
2024/01/19 00:30:17;;;;;;;10.60;5.35;;;2.20;99.90;;;;;;10072853;28;20049;-71
2024/01/19 00:35:08;;;;;;;9.13;4.10;;;2.30;99.90;;;;;;10075835;28;20032;-71
2024/01/19 00:39:59;;;;;;;8.40;4.60;;;2.30;99.90;;;;;;10073721;28;20536;-70
2024/01/19 00:44:49;;;;;;;10.10;4.20;;;2.30;99.90;;;;;;10068820;28;20033;-71
2024/01/19 00:49:40;;;;;;;8.77;4.07;;;2.30;99.90;;;;;;10073864;28;20091;-71
2024/01/19 00:54:30;;;;;;;9.60;4.45;;;2.20;99.90;;;;;;10076324;28;20051;-70
2024/01/19 00:59:21;;;;;;;6.68;4.07;;;2.30;99.90;;;;;;10069670;28;20021;-71
2024/01/19 01:04:12;;;;;;;10.98;5.53;;;2.40;99.90;;;;;;10070161;28;20546;-71
2024/01/19 01:09:03;;;;;;;10.35;4.55;;;2.40;99.90;;;;;;10071097;28;20620;-70
2024/01/19 01:13:54;;;;;;;8.20;3.55;;;2.30;99.90;;;;;;10073213;28;20568;-70
2024/01/19 01:18:45;;;;;;;9.68;4.15;;;2.30;99.90;;;;;;10071835;28;20034;-70
2024/01/19 01:23:35;;;;;;;8.73;4.80;;;2.40;99.90;;;;;;10077631;28;20055;-70
2024/01/19 01:28:26;;;;;;;10.00;4.25;;;2.30;99.90;;;;;;10082328;28;20029;-70
2024/01/19 01:33:17;;;;;;;10.07;4.65;;;2.40;99.90;;;;;;10081900;28;20025;-69
2024/01/19 01:38:07;;;;;;;12.20;4.18;;;2.40;99.90;;;;;;10082189;28;20121;-68
2024/01/19 01:43:01;;;;;;;6.53;4.30;;;2.40;99.90;;;;;;10086526;28;20206;-70
2024/01/19 01:47:51;;;;;;;10.75;4.90;;;2.30;99.90;;;;;;10083625;28;20029;-68
2024/01/19 01:52:42;;;;;;;12.00;4.53;;;2.30;99.90;;;;;;10080985;28;20595;-69
2024/01/19 01:57:33;;;;;;;10.85;4.95;;;2.30;99.90;;;;;;10081468;28;20033;-70
2024/01/19 02:02:24;;;;;;;9.85;4.05;;;2.40;99.90;;;;;;10081366;28;20112;-70
2024/01/19 02:07:15;;;;;;;7.10;5.00;;;2.40;99.90;;;;;;10072329;28;20105;-70
2024/01/19 02:12:06;;;;;;;10.68;5.25;;;2.40;99.90;;;;;;10079998;28;20112;-70
2024/01/19 02:16:57;;;;;;;11.57;4.47;;;2.40;99.90;;;;;;10077183;28;20051;-71
2024/01/19 02:21:48;;;;;;;9.98;4.13;;;2.40;99.90;;;;;;10080987;28;20049;-69
2024/01/19 02:26:39;;;;;;;12.13;4.50;;;2.40;99.90;;;;;;10080963;28;20018;-71
2024/01/19 02:31:30;;;;;;;9.07;4.85;;;2.30;99.90;;;;;;10076730;28;20048;-71
2024/01/19 02:36:21;;;;;;;8.88;3.83;;;2.30;99.90;;;;;;10075720;28;20087;-72
2024/01/19 02:41:11;;;;;;;8.30;4.05;;;2.30;99.90;;;;;;10076732;28;20171;-73
2024/01/19 02:46:02;;;;;;;11.00;4.95;;;2.30;99.90;;;;;;10074875;28;20040;-69
2024/01/19 02:50:53;;;;;;;8.85;5.47;;;2.30;99.90;;;;;;10071409;28;20036;-72
2024/01/19 02:55:44;;;;;;;8.63;4.53;;;2.40;99.90;;;;;;10074993;28;20036;-70
2024/01/19 03:00:34;;;;;;;9.73;4.25;;;2.30;99.90;;;;;;10077457;28;20032;-68
2024/01/19 03:05:25;;;;;;;11.40;4.95;;;2.30;99.90;;;;;;10076023;28;20091;-68
2024/01/19 03:10:16;;;;;;;11.23;6.13;;;2.40;99.90;;;;;;10073401;28;20107;-69
2024/01/19 03:15:07;;;;;;;8.40;4.72;;;2.40;99.90;;;;;;10077748;28;20023;-69
2024/01/19 03:19:58;;;;;;;13.68;5.22;;;2.40;99.90;;;;;;10075388;28;20072;-69
2024/01/19 03:24:48;;;;;;;9.70;4.88;;;2.40;99.90;;;;;;10078091;28;20051;-70
2024/01/19 03:29:39;;;;;;;12.48;4.97;;;2.40;99.90;;;;;;10079640;28;20024;-68
2024/01/19 03:34:31;;;;;;;12.15;5.55;;;2.30;99.90;;;;;;10076539;28;20517;-69
2024/01/19 03:39:23;;;;;;;11.48;5.90;;;2.30;99.90;;;;;;10077376;28;20027;-69
2024/01/19 03:44:13;;;;;;;17.05;6.10;;;2.30;99.90;;;;;;10068875;28;20041;-70
2024/01/19 03:49:04;;;;;;;13.00;5.95;;;2.30;99.90;;;;;;10079225;28;20017;-71
2024/01/19 03:53:55;;;;;;;13.15;5.22;;;2.20;99.90;;;;;;10074428;28;20112;-69
2024/01/19 03:58:45;;;;;;;14.38;5.38;;;2.20;99.90;;;;;;10071297;28;20083;-70
2024/01/19 04:03:36;;;;;;;10.38;4.75;;;2.20;99.90;;;;;;10073249;28;20061;-70
2024/01/19 04:08:27;;;;;;;11.90;5.38;;;2.30;99.90;;;;;;10070589;28;20025;-69
2024/01/19 04:13:18;;;;;;;12.73;6.47;;;2.30;99.90;;;;;;10073095;28;20055;-70
2024/01/19 04:18:08;;;;;;;11.57;5.95;;;2.20;99.90;;;;;;10072052;28;20028;-72
2024/01/19 04:22:59;;;;;;;11.68;6.53;;;2.30;99.90;;;;;;10077885;28;20115;-74
2024/01/19 04:27:51;;;;;;;15.07;6.15;;;2.40;99.90;;;;;;10069058;28;20040;-70
2024/01/19 04:32:41;;;;;;;12.68;6.22;;;2.30;99.90;;;;;;10074956;28;20112;-70
2024/01/19 04:37:32;;;;;;;12.93;5.03;;;2.30;99.90;;;;;;10076523;28;20116;-70
2024/01/19 04:42:22;;;;;;;12.73;5.95;;;2.30;99.90;;;;;;10070822;28;20037;-71
2024/01/19 04:47:13;;;;;;;14.05;5.93;;;2.30;99.90;;;;;;10070625;28;20048;-71
2024/01/19 04:52:04;;;;;;;13.48;5.43;;;2.30;99.90;;;;;;10070262;28;20108;-70
2024/01/19 04:56:54;;;;;;;12.18;6.13;;;2.30;99.90;;;;;;10075209;28;20025;-70
2024/01/19 05:01:45;;;;;;;12.93;6.30;;;2.20;99.90;;;;;;10074364;28;20090;-72
2024/01/19 05:06:36;;;;;;;10.38;5.60;;;2.20;99.90;;;;;;10072773;28;20083;-72
2024/01/19 05:11:26;;;;;;;13.10;6.10;;;2.10;99.90;;;;;;10076451;28;20022;-70
2024/01/19 05:16:17;;;;;;;13.25;6.03;;;2.00;99.90;;;;;;10074538;28;20033;-71
2024/01/19 05:21:08;;;;;;;12.20;5.60;;;2.00;99.90;;;;;;10071816;28;20103;-71
2024/01/19 05:25:59;;;;;;;15.60;7.22;;;2.00;99.90;;;;;;10078800;28;20041;-71
2024/01/19 05:30:50;;;;;;;14.10;6.93;;;2.00;99.90;;;;;;10071378;28;20059;-70
2024/01/19 05:35:40;;;;;;;14.55;6.55;;;1.90;99.90;;;;;;10072767;28;20087;-70
2024/01/19 05:40:31;;;;;;;12.23;6.22;;;1.90;99.90;;;;;;10071495;28;20092;-70
2024/01/19 05:45:21;;;;;;;12.63;6.43;;;1.80;99.90;;;;;;10072493;28;20043;-70
2024/01/19 05:50:12;;;;;;;10.38;5.72;;;1.80;99.90;;;;;;10067162;28;20041;-72
2024/01/19 05:55:04;;;;;;;15.60;7.15;;;1.90;99.90;;;;;;10069906;28;20041;-71
2024/01/19 05:59:55;;;;;;;13.93;6.53;;;1.80;99.90;;;;;;10069893;28;20037;-73
2024/01/19 06:04:46;;;;;;;12.55;6.25;;;1.90;99.90;;;;;;10066112;28;20100;-71
2024/01/19 06:09:36;;;;;;;17.75;7.60;;;1.80;99.90;;;;;;10080185;28;20340;-71
2024/01/19 06:14:27;;;;;;;15.70;6.80;;;1.90;99.90;;;;;;10075109;28;20048;-72
2024/01/19 06:19:17;;;;;;;12.85;6.53;;;1.80;99.90;;;;;;10077971;28;20606;-69
2024/01/19 06:24:08;;;;;;;10.55;6.32;;;1.80;99.90;;;;;;10077020;28;20037;-69
2024/01/19 06:28:59;;;;;;;12.77;5.93;;;1.90;99.90;;;;;;10081855;28;20112;-71
2024/01/19 06:33:49;;;;;;;11.45;6.35;;;1.90;99.90;;;;;;10076773;28;20033;-72
2024/01/19 06:38:40;;;;;;;15.43;8.07;;;1.90;99.90;;;;;;10074327;28;20033;-71
2024/01/19 06:43:31;;;;;;;14.85;6.97;;;1.90;99.90;;;;;;10077496;28;20040;-71
2024/01/19 06:48:22;;;;;;;18.95;7.88;;;1.80;99.90;;;;;;10072681;28;20029;-72
2024/01/19 06:53:12;;;;;;;14.50;6.45;;;2.00;99.90;;;;;;10079787;28;20104;-71
2024/01/19 06:58:03;;;;;;;15.27;6.80;;;1.90;99.90;;;;;;10079121;28;20032;-72
2024/01/19 07:02:54;;;;;;;15.60;7.65;;;1.90;99.90;;;;;;10074539;28;20041;-71
2024/01/19 07:07:45;;;;;;;15.10;6.93;;;1.90;99.90;;;;;;10075931;28;20340;-72
2024/01/19 07:12:35;;;;;;;14.88;7.03;;;1.90;99.90;;;;;;10074878;28;20033;-71
2024/01/19 07:17:26;;;;;;;13.02;6.13;;;1.90;99.90;;;;;;10075464;28;20033;-72
2024/01/19 07:22:17;;;;;;;13.52;7.10;;;1.80;99.90;;;;;;10075577;28;20662;-72
2024/01/19 07:27:07;;;;;;;11.77;5.70;;;1.80;99.90;;;;;;10073025;28;20398;-72
2024/01/19 07:31:58;;;;;;;12.30;6.57;;;1.90;99.90;;;;;;10075382;28;20091;-69
2024/01/19 07:36:48;;;;;;;12.55;5.72;;;2.00;99.90;;;;;;10073618;28;20519;-70
2024/01/19 07:41:40;;;;;;;14.20;6.63;;;2.00;99.90;;;;;;10069894;28;20021;-69
2024/01/19 07:46:31;;;;;;;12.05;5.57;;;2.10;99.90;;;;;;10075049;28;20022;-77
2024/01/19 07:51:22;;;;;;;11.02;5.82;;;2.10;99.90;;;;;;10073265;28;20029;-71
2024/01/19 07:56:12;;;;;;;8.52;5.00;;;2.00;99.90;;;;;;10070875;28;20040;-68
2024/01/19 08:01:04;;;;;;;12.32;5.43;;;2.00;99.90;;;;;;10068998;28;20060;-67
2024/01/19 08:05:54;;;;;;;9.15;5.10;;;2.10;99.90;;;;;;10070967;28;20041;-72
2024/01/19 08:10:45;;;;;;;9.35;5.32;;;2.10;99.90;;;;;;10078074;28;20033;-68
2024/01/19 08:15:36;;;;;;;10.73;5.60;;;2.10;99.90;;;;;;10061779;28;20013;-68
2024/01/19 08:20:26;;;;;;;11.45;4.78;;;2.10;99.90;;;;;;10055934;28;20077;-70
2024/01/19 08:25:17;;;;;;;11.73;5.10;;;2.10;99.90;;;;;;10054644;28;20110;-70
2024/01/19 08:30:09;;;;;;;10.38;5.13;;;2.10;99.90;;;;;;10054869;28;20025;-67
2024/01/19 08:35:00;;;;;;;11.38;4.43;;;2.10;99.90;;;;;;10054824;28;20167;-70
2024/01/19 08:39:50;;;;;;;12.23;5.70;;;2.10;99.90;;;;;;10056336;28;20164;-69
2024/01/19 08:44:44;;;;;;;9.25;5.32;;;2.20;99.90;;;;;;10051301;28;21362;-68
2024/01/19 08:49:35;;;;;;;9.70;4.82;;;2.10;99.90;;;;;;10052859;28;20025;-69
2024/01/19 08:54:25;;;;;;;14.15;6.80;;;2.10;99.90;;;;;;10053220;28;20112;-72
2024/01/19 08:59:18;;;;;;;14.00;5.90;;;2.20;99.90;;;;;;10055692;28;20448;-69
2024/01/19 09:04:08;;;;;;;11.43;6.05;;;2.20;99.90;;;;;;10054979;28;20041;-69
2024/01/19 09:09:02;;;;;;;12.98;5.57;;;2.20;99.90;;;;;;10056238;28;20021;-69
2024/01/19 09:13:53;;;;;;;9.48;5.70;;;2.20;99.90;;;;;;10055646;28;20045;-70
2024/01/19 09:18:44;;;;;;;10.95;5.32;;;2.20;99.90;;;;;;10055485;28;20087;-70
2024/01/19 09:23:35;;;;;;;9.43;4.72;;;2.30;99.90;;;;;;10052672;28;20058;-69
2024/01/19 09:28:26;;;;;;;13.35;6.35;;;2.20;99.90;;;;;;10055756;28;20691;-70
2024/01/19 09:33:16;;;;;;;14.02;6.03;;;2.30;99.90;;;;;;10054959;28;20029;-69
2024/01/19 09:38:07;;;;;;;12.57;5.88;;;2.40;99.90;;;;;;10057002;28;20028;-68
2024/01/19 09:42:59;;;;;;;14.70;5.80;;;2.40;99.90;;;;;;10058734;28;20049;-70
2024/01/19 09:48:16;;;;;;;12.63;5.90;;;2.40;99.90;;;;;;10062958;28;20025;-70
2024/01/19 09:53:19;;;;;;;17.27;7.03;;;2.40;99.90;;;;;;10062138;28;20032;-69
2024/01/19 09:58:10;;;;;;;12.65;7.10;;;2.50;99.90;;;;;;10061509;28;20033;-69
2024/01/19 10:03:02;;;;;;;14.38;7.10;;;2.50;99.90;;;;;;10090845;28;20107;-69
2024/01/19 10:07:55;;;;;;;14.20;7.53;;;2.60;99.90;;;;;;10062309;28;20115;-70
2024/01/19 10:12:45;;;;;;;12.95;6.65;;;2.60;99.90;;;;;;10061562;28;20036;-69
2024/01/19 10:17:36;;;;;;;9.65;5.13;;;2.60;99.90;;;;;;10060984;28;20018;-69
2024/01/19 10:22:29;;;;;;;12.60;5.57;;;2.70;99.90;;;;;;10059061;28;20415;-69
2024/01/19 10:27:20;;;;;;;15.50;6.95;;;2.70;99.90;;;;;;10060513;28;20042;-69
2024/01/19 10:32:21;;;;;;;13.15;6.65;;;2.80;99.90;;;;;;10060782;28;20372;-67
2024/01/19 10:37:21;;;;;;;13.80;5.45;;;2.90;99.90;;;;;;10060557;28;20025;-69
2024/01/19 10:42:11;;;;;;;11.48;4.90;;;2.90;99.90;;;;;;10060164;28;20518;-70
2024/01/19 10:47:02;;;;;;;12.82;6.15;;;2.90;99.90;;;;;;10062011;28;20519;-70
2024/01/19 10:51:55;;;;;;;17.58;6.07;;;2.90;99.90;;;;;;10059384;28;20037;-69
2024/01/19 10:56:46;;;;;;;12.23;5.45;;;2.80;99.90;;;;;;10058350;28;20037;-69
2024/01/19 11:01:38;;;;;;;13.52;6.70;;;2.70;99.90;;;;;;10063786;28;20534;-70
2024/01/19 11:06:29;;;;;;;12.02;5.70;;;2.50;99.90;;;;;;10059415;28;20060;-69
2024/01/19 11:11:21;;;;;;;15.75;5.50;;;2.50;99.90;;;;;;10059508;28;20402;-70
2024/01/19 11:16:18;;;;;;;11.95;5.25;;;2.50;99.90;;;;;;10057609;28;20045;-71
2024/01/19 11:21:09;;;;;;;13.95;5.53;;;2.50;99.90;;;;;;10051783;28;20136;-69
2024/01/19 11:26:09;;;;;;;11.43;6.40;;;2.60;99.90;;;;;;10055936;28;20120;-66
2024/01/19 11:31:12;;;;;;;12.70;5.68;;;2.60;99.90;;;;;;10058048;28;20506;-68
2024/01/19 11:36:04;;;;;;;18.42;6.72;;;2.60;99.90;;;;;;10058717;28;20125;-66
2024/01/19 11:40:55;;;;;;;11.27;5.85;;;2.60;99.90;;;;;;10058334;28;20133;-66
2024/01/19 11:45:46;;;;;;;11.02;5.13;;;2.70;99.90;;;;;;10056385;28;20124;-66
2024/01/19 11:50:44;;;;;;;10.38;4.65;;;2.60;99.90;;;;;;10058033;28;20096;-66
2024/01/19 11:55:37;;;;;;;13.85;5.25;;;2.70;99.90;;;;;;10055180;28;20040;-67
2024/01/19 12:00:29;;;;;;;7.80;4.35;;;2.70;99.90;;;;;;10057246;28;20087;-67
2024/01/19 12:05:21;;;;;;;9.43;5.05;;;2.90;99.90;;;;;;10054911;28;20037;-66
2024/01/19 12:10:15;;;;;;;12.82;5.07;;;2.90;99.90;;;;;;10057395;28;20087;-66
2024/01/19 12:15:07;;;;;;;11.23;5.80;;;2.90;99.90;;;;;;10056857;28;20052;-66
2024/01/19 12:19:58;;;;;;;13.10;4.93;;;3.00;99.90;;;;;;10056738;28;20048;-66
2024/01/19 12:24:49;;;;;;;9.15;4.68;;;3.00;99.90;;;;;;10056735;28;20051;-66
2024/01/19 12:29:39;;;;;;;11.05;5.65;;;3.00;99.90;;;;;;10060199;28;20029;-66
2024/01/19 12:34:30;;;;;;;8.85;5.10;;;2.90;99.90;;;;;;10055878;28;20040;-68
2024/01/19 12:39:21;;;;;;;11.13;5.00;;;3.10;99.90;;;;;;10055383;28;20100;-68
2024/01/19 12:44:13;;;;;;;9.45;5.25;;;3.00;99.90;;;;;;10052183;28;20564;-68
2024/01/19 12:49:04;;;;;;;9.40;4.78;;;2.90;99.90;;;;;;10054106;28;20022;-68
2024/01/19 12:53:55;;;;;;;20.08;5.07;;;2.90;99.90;;;;;;10055458;28;20033;-68
2024/01/19 12:58:46;;;;;;;11.35;5.55;;;2.90;99.90;;;;;;10056370;28;20021;-68
2024/01/19 13:03:38;;;;;;;11.35;5.32;;;3.00;99.90;;;;;;10054933;28;20033;-68
2024/01/19 13:08:29;;;;;;;13.20;5.55;;;3.00;99.90;;;;;;10055567;28;20814;-70
2024/01/19 13:13:21;;;;;;;10.43;5.15;;;3.00;99.90;;;;;;10053828;28;20036;-70
2024/01/19 13:18:17;;;;;;;10.32;4.60;;;3.10;99.90;;;;;;10059296;28;20029;-68
2024/01/19 13:23:08;;;;;;;;;;;3.10;99.90;;;;;;10062280;28;20053;-69
2024/01/19 13:27:59;;;;;;;15.00;5.28;;;3.10;99.90;;;;;;10062309;28;20420;-69
2024/01/19 13:32:49;;;;;;;10.20;5.18;;;3.00;99.90;;;;;;10062165;28;20071;-67
2024/01/19 13:37:43;;;;;;;12.18;5.82;;;3.00;99.90;;;;;;10063598;28;20068;-69
2024/01/19 13:42:34;;;;;;;13.05;6.60;;;3.00;99.90;;;;;;10063084;28;20041;-69
2024/01/19 13:47:25;;;;;;;11.32;5.32;;;2.90;99.90;;;;;;10062831;28;20045;-68
2024/01/19 13:52:15;;;;;;;11.90;5.47;;;2.80;99.90;;;;;;10062675;28;20025;-67
2024/01/19 13:57:06;;;;;;;11.70;5.07;;;2.80;99.90;;;;;;10060469;28;20025;-69
2024/01/19 14:01:57;;;;;;;12.50;5.88;;;2.80;99.90;;;;;;10061136;28;20029;-67
2024/01/19 14:06:48;;;;;;;11.07;5.07;;;2.80;99.90;;;;;;10060757;28;20037;-69
2024/01/19 14:11:39;;;;;;;11.18;4.50;;;2.80;99.90;;;;;;10062397;28;20017;-68
2024/01/19 14:16:30;;;;;;;11.40;4.90;;;2.80;99.90;;;;;;10059166;28;20509;-69
2024/01/19 14:21:21;;;;;;;14.70;5.50;;;2.90;99.90;;;;;;10060310;28;20060;-68
2024/01/19 14:26:12;;;;;;;8.00;4.00;;;3.00;99.90;;;;;;10061388;28;20047;-68
2024/01/19 14:31:03;;;;;;;8.25;4.03;;;2.90;99.90;;;;;;10059632;28;20125;-68
2024/01/19 14:35:54;;;;;;;9.43;4.20;;;2.90;99.90;;;;;;10063849;28;20032;-69
2024/01/19 14:40:45;;;;;;;6.90;3.97;;;2.80;99.90;;;;;;10060885;28;20036;-68
2024/01/19 14:45:35;;;;;;;8.82;4.03;;;2.80;99.90;;;;;;10064871;28;20037;-70
2024/01/19 14:50:27;;;;;;;8.55;4.15;;;2.70;99.90;;;;;;10060472;28;20037;-69
2024/01/19 14:55:18;;;;;;;8.43;3.70;;;2.80;99.90;;;;;;10059885;28;20452;-69
2024/01/19 15:00:09;;;;;;;11.00;5.72;;;2.90;99.90;;;;;;10059838;28;20037;-70
2024/01/19 15:05:00;;;;;;;9.30;4.28;;;2.80;99.90;;;;;;10059958;28;20034;-70
2024/01/19 15:09:50;;;;;;;7.65;3.53;;;2.90;99.90;;;;;;10059137;28;20034;-68
2024/01/19 15:14:41;;;;;;;10.43;4.13;;;2.90;99.90;;;;;;10059277;28;20455;-68
2024/01/19 15:19:32;;;;;;;8.95;3.47;;;2.90;99.90;;;;;;10054908;28;20053;-67
2024/01/19 15:24:22;;;;;;;6.15;4.43;;;2.80;99.90;;;;;;10055121;28;20119;-67
2024/01/19 15:29:14;;;;;;;7.32;4.20;;;2.90;99.90;;;;;;10059438;28;20025;-69
2024/01/19 15:34:05;;;;;;;7.38;3.83;;;2.70;99.90;;;;;;10058304;28;20036;-68
2024/01/19 15:38:56;;;;;;;8.18;4.07;;;2.80;99.90;;;;;;10065587;28;20056;-67
2024/01/19 15:43:46;;;;;;;8.93;3.97;;;2.80;99.90;;;;;;10070992;28;20049;-70
2024/01/19 15:48:37;;;;;;;8.63;3.67;;;2.60;99.90;;;;;;10072749;28;20037;-68
2024/01/19 15:53:27;;;;;;;10.40;4.63;;;2.60;99.90;;;;;;10070773;28;20021;-68
2024/01/19 15:58:18;;;;;;;6.85;3.45;;;2.60;99.90;;;;;;10077344;28;20052;-68
2024/01/19 16:03:09;;;;;;;7.68;4.13;;;2.50;99.90;;;;;;10072291;28;20041;-68
2024/01/19 16:08:00;;;;;;;8.23;4.47;;;2.50;99.90;;;;;;10078455;28;20086;-67
2024/01/19 16:12:51;;;;;;;9.30;4.22;;;2.50;99.90;;;;;;10069538;28;20091;-68
2024/01/19 16:17:41;;;;;;;8.82;4.30;;;2.50;99.90;;;;;;10068509;28;20377;-70
2024/01/19 16:22:32;;;;;;;8.80;4.25;;;2.40;99.90;;;;;;10076095;28;20163;-70
2024/01/19 16:27:23;;;;;;;9.80;4.57;;;2.30;99.90;;;;;;10059209;28;20724;-69
2024/01/19 16:32:13;;;;;;;8.10;4.43;;;2.30;99.90;;;;;;10056411;28;20095;-70
2024/01/19 16:37:04;;;;;;;8.57;3.83;;;2.30;99.90;;;;;;10052014;28;20034;-70
2024/01/19 16:41:55;;;;;;;5.05;3.00;;;2.30;99.90;;;;;;10055590;28;20021;-71
2024/01/19 16:46:45;;;;;;;7.47;4.05;;;2.30;99.90;;;;;;10056208;28;20026;-71
2024/01/19 16:51:36;;;;;;;10.20;4.30;;;2.40;99.90;;;;;;10055948;28;20116;-70
2024/01/19 16:56:28;;;;;;;9.50;4.20;;;2.40;99.90;;;;;;10055394;28;20714;-69
2024/01/19 17:01:18;;;;;;;8.98;3.55;;;2.40;99.90;;;;;;10053670;28;20491;-69
2024/01/19 17:06:13;;;;;;;7.78;4.22;;;2.40;99.90;;;;;;10055140;28;20037;-70
2024/01/19 17:11:04;;;;;;;9.88;3.95;;;2.40;99.90;;;;;;10053084;28;20032;-70
2024/01/19 17:15:54;;;;;;;8.02;3.67;;;2.30;99.90;;;;;;10054430;28;20036;-70
2024/01/19 17:20:46;;;;;;;10.43;4.30;;;2.30;99.90;;;;;;10056651;28;20063;-69
2024/01/19 17:25:37;;;;;;;7.32;3.85;;;2.30;99.90;;;;;;10055523;28;20113;-69
2024/01/19 17:30:27;;;;;;;7.05;3.90;;;2.40;99.90;;;;;;10055184;28;20191;-68
2024/01/19 17:35:18;;;;;;;11.48;5.10;;;2.30;99.90;;;;;;10055239;28;20525;-68
2024/01/19 17:40:09;;;;;;;8.68;4.50;;;2.30;99.90;;;;;;10056099;28;20037;-69
2024/01/19 17:44:59;;;;;;;12.40;5.00;;;2.30;99.90;;;;;;10055343;28;20124;-69
2024/01/19 17:49:50;;;;;;;13.55;4.88;;;2.30;99.90;;;;;;10054955;28;20029;-69
2024/01/19 17:54:41;;;;;;;8.50;4.75;;;2.20;99.90;;;;;;10054668;28;20133;-69
2024/01/19 17:59:31;;;;;;;13.32;5.32;;;2.20;99.90;;;;;;10045906;28;20087;-68
2024/01/19 18:04:22;;;;;;;14.55;5.60;;;2.30;99.90;;;;;;10058795;28;20045;-69
2024/01/19 18:09:12;;;;;;;13.80;5.22;;;2.20;99.90;;;;;;10060763;28;20124;-69
2024/01/19 18:14:03;;;;;;;18.33;6.60;;;2.20;99.90;;;;;;10068713;28;20037;-68
2024/01/19 18:18:54;;;;;;;14.48;7.15;;;2.20;99.90;;;;;;10055790;28;20029;-68
2024/01/19 18:23:47;;;;;;;14.25;7.40;;;2.20;99.90;;;;;;10051391;28;20426;-68
2024/01/19 18:28:38;;;;;;;12.73;6.55;;;2.20;99.90;;;;;;10061298;28;20025;-68
2024/01/19 18:33:29;;;;;;;12.23;5.78;;;2.20;99.90;;;;;;10061110;28;21346;-70
2024/01/19 18:38:20;;;;;;;12.57;6.38;;;2.20;99.90;;;;;;10060823;28;20030;-68
2024/01/19 18:43:10;;;;;;;13.48;5.25;;;2.20;99.90;;;;;;10058555;28;20041;-69
2024/01/19 18:48:03;;;;;;;12.75;5.85;;;2.20;99.90;;;;;;10059584;28;20033;-69
2024/01/19 18:52:54;;;;;;;11.85;5.72;;;2.10;99.90;;;;;;10060012;28;20032;-69
2024/01/19 18:57:45;;;;;;;15.88;6.50;;;2.20;99.90;;;;;;10060136;28;20060;-69
2024/01/19 19:02:35;;;;;;;11.82;5.15;;;2.10;99.90;;;;;;10059304;28;20132;-68
2024/01/19 19:07:26;;;;;;;13.57;5.90;;;2.10;99.90;;;;;;10060310;28;20473;-68
2024/01/19 19:12:17;;;;;;;10.82;6.65;;;2.00;99.90;;;;;;10059511;28;20527;-70
2024/01/19 19:17:08;;;;;;;13.65;5.80;;;2.00;99.90;;;;;;10059654;28;20034;-67
2024/01/19 19:21:59;;;;;;;11.48;6.07;;;2.00;99.90;;;;;;10059149;28;20124;-69
2024/01/19 19:26:49;;;;;;;12.52;6.78;;;2.00;99.90;;;;;;10063047;28;20037;-67
2024/01/19 19:31:40;;;;;;;14.02;6.38;;;2.00;99.90;;;;;;10059262;28;20128;-69
2024/01/19 19:36:32;;;;;;;17.02;8.35;;;1.90;99.90;;;;;;10058558;28;20029;-68
2024/01/19 19:41:22;;;;;;;18.95;9.10;;;1.90;99.90;;;;;;10060273;28;20060;-69
2024/01/19 19:46:13;;;;;;;11.43;6.25;;;1.90;99.90;;;;;;10057530;28;20038;-71
2024/01/19 19:51:04;;;;;;;13.63;6.35;;;1.90;99.90;;;;;;10039259;28;20040;-71
2024/01/19 19:55:55;;;;;;;15.38;7.97;;;1.90;99.90;;;;;;10058724;28;20041;-69
2024/01/19 20:00:46;;;;;;;11.35;6.93;;;1.90;99.90;;;;;;10061260;28;20565;-67
2024/01/19 20:05:37;;;;;;;14.07;6.90;;;1.90;99.90;;;;;;10054466;28;20041;-68
2024/01/19 20:10:27;;;;;;;18.13;7.68;;;1.80;99.90;;;;;;10056617;28;20030;-67
2024/01/19 20:15:18;;;;;;;15.18;6.47;;;1.90;99.90;;;;;;10057352;28;20101;-67
2024/01/19 20:20:09;;;;;;;14.65;7.13;;;1.80;99.90;;;;;;10052704;28;20052;-66
2024/01/19 20:25:00;;;;;;;14.85;6.88;;;1.80;99.90;;;;;;10056245;28;20045;-67
2024/01/19 20:29:51;;;;;;;11.20;6.03;;;1.80;99.90;;;;;;10053678;28;20531;-67
2024/01/19 20:34:42;;;;;;;14.32;6.38;;;1.80;99.90;;;;;;10052908;28;20079;-69
2024/01/19 20:39:32;;;;;;;11.85;6.40;;;1.80;99.90;;;;;;10055827;28;20033;-68
2024/01/19 20:44:23;;;;;;;10.10;5.60;;;1.70;99.90;;;;;;10059147;28;20044;-68
2024/01/19 20:49:14;;;;;;;19.42;7.20;;;1.70;99.90;;;;;;10056514;28;20021;-68
2024/01/19 20:54:05;;;;;;;13.07;6.88;;;1.80;99.90;;;;;;10056241;28;20088;-71
2024/01/19 20:58:56;;;;;;;19.35;8.27;;;1.70;99.90;;;;;;10054983;28;20112;-71
2024/01/19 21:03:47;;;;;;;16.10;6.85;;;1.70;99.90;;;;;;10055402;28;20124;-68
2024/01/19 21:08:38;;;;;;;17.45;8.07;;;1.60;99.90;;;;;;10054756;28;20033;-68
2024/01/19 21:13:29;;;;;;;16.95;8.43;;;1.40;99.90;;;;;;10055850;28;20033;-71
2024/01/19 21:18:20;;;;;;;16.85;8.48;;;1.40;99.90;;;;;;10056626;28;20083;-68
2024/01/19 21:23:11;;;;;;;15.65;8.63;;;1.40;99.90;;;;;;10056870;28;20227;-70
2024/01/19 21:28:01;;;;;;;20.10;8.73;;;1.40;99.90;;;;;;10055623;28;20296;-68
2024/01/19 21:32:52;;;;;;;20.42;8.60;;;1.40;99.90;;;;;;10056686;28;20056;-69
2024/01/19 21:37:43;;;;;;;13.95;7.55;;;1.40;99.90;;;;;;10055450;28;20100;-71
2024/01/19 21:42:35;;;;;;;18.67;8.20;;;1.40;99.90;;;;;;10063828;28;20499;-71
2024/01/19 21:47:26;;;;;;;19.25;8.63;;;1.40;99.90;;;;;;10063562;28;20112;-71
2024/01/19 21:52:16;;;;;;;21.90;8.98;;;1.40;99.90;;;;;;10062462;28;20108;-72
2024/01/19 21:57:07;;;;;;;18.77;8.93;;;1.40;99.90;;;;;;10062466;28;20061;-70
2024/01/19 22:01:58;;;;;;;16.15;7.95;;;1.40;99.90;;;;;;10062111;28;20033;-72
2024/01/19 22:06:48;;;;;;;15.90;8.23;;;1.40;99.90;;;;;;10062472;28;20049;-71
2024/01/19 22:11:39;;;;;;;17.70;7.72;;;1.40;99.90;;;;;;10061755;28;20114;-70
2024/01/19 22:16:30;;;;;;;20.00;9.25;;;1.40;99.90;;;;;;10062435;28;20515;-70
2024/01/19 22:21:21;;;;;;;17.90;8.45;;;1.30;99.90;;;;;;10061839;28;20040;-69
2024/01/19 22:26:12;;;;;;;19.13;8.80;;;1.20;99.90;;;;;;10060683;28;20055;-71
2024/01/19 22:31:03;;;;;;;15.75;7.97;;;1.20;99.90;;;;;;10061134;28;20052;-71
2024/01/19 22:35:54;;;;;;;18.80;7.25;;;1.20;99.90;;;;;;10060980;28;20079;-68
2024/01/19 22:40:44;;;;;;;13.77;7.03;;;1.20;99.90;;;;;;10066491;28;20403;-68
2024/01/19 22:45:35;;;;;;;19.52;8.57;;;1.20;99.90;;;;;;10060807;28;20268;-70
2024/01/19 22:50:26;;;;;;;14.40;7.38;;;1.00;99.90;;;;;;10060389;28;20056;-71
2024/01/19 22:55:18;;;;;;;14.43;7.15;;;1.00;99.90;;;;;;10059072;28;20087;-71
2024/01/19 23:00:12;;;;;;;17.10;7.97;;;1.10;99.90;;;;;;10060097;28;20116;-69
2024/01/19 23:05:07;;;;;;;15.48;6.97;;;1.10;99.90;;;;;;10059691;28;20044;-69
2024/01/19 23:09:58;;;;;;;16.58;7.00;;;1.10;99.90;;;;;;10057496;28;20017;-69
2024/01/19 23:14:48;;;;;;;14.40;6.55;;;1.10;99.90;;;;;;10060190;28;20032;-67
2024/01/19 23:19:39;;;;;;;14.55;6.07;;;1.10;99.90;;;;;;10059702;28;20041;-69
2024/01/19 23:24:30;;;;;;;15.48;6.35;;;1.10;99.90;;;;;;10058428;28;21314;-68
2024/01/19 23:29:22;;;;;;;10.77;5.53;;;1.10;99.90;;;;;;10059802;28;20104;-68
2024/01/19 23:34:13;;;;;;;13.27;6.63;;;1.10;99.90;;;;;;10054798;28;20280;-67
2024/01/19 23:39:04;;;;;;;17.80;6.82;;;1.10;99.90;;;;;;10067124;28;20021;-68
2024/01/19 23:43:55;;;;;;;9.40;5.35;;;1.00;99.90;;;;;;10058609;28;20436;-69
2024/01/19 23:48:46;;;;;;;14.68;6.25;;;1.00;99.90;;;;;;10051776;28;20116;-68
2024/01/19 23:53:37;;;;;;;15.57;6.72;;;1.00;99.90;;;;;;10057561;28;20026;-67
2024/01/19 23:58:27;;;;;;;16.02;6.95;;;1.00;99.90;;;;;;10058009;28;20398;-67
